Bates, Illinois
Current Conditions -  °F | °C
As of 2:52 PM on Sunday 23 Nov 2014 (Local Time) from KSPI Reporting Station
Moderate Rain Moderate Rain  
Wind Chill: 52°   Ceiling: 800
Heat Index: 52°   Visibility: 3mi
Dew Point: 51°   Wind: 15mph
Humidity: 97%   Direction: 150°SSE
Pressure: 29.41"   Gusts: NA
Location:  39.7375°N, 89.904°W
Report Text: KSPI 232052Z 15013KT 3SM RA BR BKN008 OVC014 11/11 A2941 RMK AO2 SLP958 P0020 60027 T01110106 56047
Loading
Personal Weather Stations






























Interactive Weather Map New forecast layout! Learn more

10-Day Weather Forecast

Advertisements
Track Severe Weather on mobile